createdAt,value
2023-01-12T00:02:23.553Z,7.90
2023-01-12T00:04:51.470Z,7.10
2023-01-12T00:07:20.602Z,7.30
2023-01-12T00:09:49.162Z,6.80
2023-01-12T00:12:17.049Z,7.30
2023-01-12T00:14:44.857Z,7.30
2023-01-12T00:17:16.841Z,6.70
2023-01-12T00:19:44.628Z,7.00
2023-01-12T00:22:12.733Z,6.10
2023-01-12T00:24:44.144Z,5.40
2023-01-12T00:27:15.243Z,5.10
2023-01-12T00:29:44.186Z,5.70
2023-01-12T00:32:15.501Z,5.10
2023-01-12T00:34:43.627Z,6.00
2023-01-12T00:37:11.933Z,6.30
2023-01-12T00:39:43.012Z,5.60
2023-01-12T00:42:32.178Z,5.30
2023-01-12T00:45:18.830Z,5.50
2023-01-12T00:47:46.983Z,5.70
2023-01-12T00:50:15.351Z,6.10
2023-01-12T00:52:43.640Z,5.80
2023-01-12T00:55:11.753Z,6.50
2023-01-12T00:57:40.229Z,6.80
2023-01-12T01:00:09.055Z,5.70
2023-01-12T01:02:37.480Z,5.50
2023-01-12T01:05:05.700Z,5.50
2023-01-12T01:07:34.877Z,5.40
2023-01-12T01:10:03.114Z,5.30
2023-01-12T01:12:31.252Z,6.20
2023-01-12T01:14:59.097Z,6.00
2023-01-12T01:17:28.978Z,6.20
2023-01-12T01:19:56.879Z,5.20
2023-01-12T01:22:24.727Z,5.70
2023-01-12T01:24:52.724Z,5.60
2023-01-12T01:27:20.594Z,4.90
2023-01-12T01:29:48.781Z,6.20
2023-01-12T01:32:16.897Z,5.80
2023-01-12T01:34:46.466Z,5.70
2023-01-12T01:37:14.510Z,5.20
2023-01-12T01:39:42.674Z,5.30
2023-01-12T01:42:28.237Z,5.80
2023-01-12T01:44:58.745Z,5.30
2023-01-12T01:47:36.740Z,5.40
2023-01-12T01:50:19.322Z,4.90
2023-01-12T01:52:52.479Z,5.30
2023-01-12T01:55:23.968Z,5.10
2023-01-12T01:57:54.073Z,5.80
2023-01-12T02:00:23.339Z,5.50
2023-01-12T02:02:52.612Z,5.70
2023-01-12T02:05:23.892Z,7.20
2023-01-12T02:07:52.981Z,5.90
2023-01-12T02:10:21.547Z,5.10
2023-01-12T02:13:08.872Z,5.60
2023-01-12T02:16:21.316Z,6.00
2023-01-12T02:19:25.716Z,5.50
2023-01-12T02:22:23.507Z,6.20
2023-01-12T02:25:09.600Z,7.00
2023-01-12T02:28:05.887Z,6.10
2023-01-12T02:30:52.518Z,5.80
2023-01-12T02:33:52.857Z,6.30
2023-01-12T02:36:35.977Z,5.40
2023-01-12T02:39:39.216Z,5.50
2023-01-12T02:45:19.353Z,7.20
2023-01-12T02:47:53.022Z,4.90
2023-01-12T02:50:46.345Z,6.20
2023-01-12T02:53:30.297Z,5.30
2023-01-12T02:56:04.810Z,5.90
2023-01-12T02:58:36.868Z,5.60
2023-01-12T03:01:06.026Z,6.80
2023-01-12T03:03:35.231Z,6.30
2023-01-12T03:06:05.868Z,6.50
2023-01-12T03:08:37.589Z,5.80
2023-01-12T03:11:16.104Z,5.60
2023-01-12T03:13:48.240Z,6.00
2023-01-12T03:16:24.222Z,5.70
2023-01-12T03:19:09.692Z,5.80
2023-01-12T03:21:41.029Z,6.20
2023-01-12T03:24:12.577Z,6.70
2023-01-12T03:26:47.779Z,5.30
2023-01-12T03:29:40.923Z,6.20
2023-01-12T03:32:08.770Z,5.50
2023-01-12T03:34:37.408Z,5.90
2023-01-12T03:37:15.056Z,6.70
2023-01-12T03:40:00.570Z,5.80
2023-01-12T03:42:36.781Z,6.60
2023-01-12T03:45:29.055Z,6.00
2023-01-12T03:48:08.010Z,6.10
2023-01-12T03:50:41.707Z,6.00
2023-01-12T03:53:10.655Z,5.40
2023-01-12T03:55:39.556Z,5.80
2023-01-12T03:58:07.479Z,5.90
2023-01-12T04:00:35.563Z,5.40
2023-01-12T04:03:09.711Z,4.70
2023-01-12T04:05:38.619Z,5.10
2023-01-12T04:08:06.726Z,5.40
2023-01-12T04:10:34.721Z,4.70
2023-01-12T04:13:02.554Z,5.10
2023-01-12T04:15:30.711Z,5.60
2023-01-12T04:17:58.600Z,4.90
2023-01-12T04:20:26.369Z,5.50
2023-01-12T04:22:54.436Z,4.80
2023-01-12T04:25:23.210Z,4.90
2023-01-12T04:28:05.001Z,4.40
2023-01-12T04:30:33.860Z,5.60
2023-01-12T04:33:08.276Z,4.80
2023-01-12T04:35:36.773Z,5.20
2023-01-12T04:38:10.193Z,5.10
2023-01-12T04:40:38.495Z,5.00
2023-01-12T04:43:08.757Z,4.80
2023-01-12T04:45:39.342Z,4.70
2023-01-12T04:48:11.951Z,4.30
2023-01-12T04:50:40.823Z,5.50
2023-01-12T04:53:11.454Z,4.30
2023-01-12T04:55:41.436Z,4.90
2023-01-12T04:58:09.943Z,5.80
2023-01-12T05:00:37.909Z,5.80
2023-01-12T05:03:11.770Z,7.00
2023-01-12T05:05:39.714Z,5.80
2023-01-12T05:08:26.255Z,5.80
2023-01-12T05:10:56.591Z,6.50
2023-01-12T05:13:26.652Z,6.60
2023-01-12T05:15:54.789Z,6.30
2023-01-12T05:18:23.377Z,6.90
2023-01-12T05:20:51.157Z,7.00
2023-01-12T05:23:19.111Z,5.90
2023-01-12T05:25:49.777Z,6.30
2023-01-12T05:28:17.576Z,5.40
2023-01-12T05:30:45.822Z,4.90
2023-01-12T05:33:16.592Z,5.70
2023-01-12T05:35:44.376Z,5.60
2023-01-12T05:38:12.577Z,6.50
2023-01-12T05:40:40.635Z,5.50
2023-01-12T05:43:31.419Z,5.30
2023-01-12T05:46:04.708Z,5.10
2023-01-12T05:48:33.205Z,4.50
2023-01-12T05:51:05.152Z,5.50
2023-01-12T05:53:33.153Z,4.30
2023-01-12T05:56:08.177Z,4.60
2023-01-12T05:58:37.276Z,5.50
2023-01-12T06:01:09.871Z,5.50
2023-01-12T06:03:37.888Z,5.80
2023-01-12T06:06:06.270Z,4.60
2023-01-12T06:08:34.238Z,4.40
2023-01-12T06:11:04.452Z,5.00
2023-01-12T06:13:51.507Z,4.60
2023-01-12T06:16:19.328Z,4.70
2023-01-12T06:18:47.646Z,4.70
2023-01-12T06:21:15.766Z,6.00
2023-01-12T06:23:43.582Z,5.00
2023-01-12T06:26:11.959Z,4.40
2023-01-12T06:28:40.759Z,5.30
2023-01-12T06:31:11.437Z,4.10
2023-01-12T06:33:40.040Z,5.30
2023-01-12T06:36:08.199Z,4.80
2023-01-12T06:38:37.542Z,5.30
2023-01-12T06:41:33.630Z,5.80
2023-01-12T06:44:01.690Z,6.10
2023-01-12T06:46:29.687Z,6.40
2023-01-12T06:48:58.886Z,6.80
2023-01-12T06:51:27.156Z,6.80
2023-01-12T06:53:55.939Z,5.50
2023-01-12T06:56:24.228Z,5.60
2023-01-12T06:58:51.997Z,5.40
2023-01-12T07:01:20.187Z,5.60
2023-01-12T07:03:48.250Z,6.20
2023-01-12T07:06:16.802Z,4.70
2023-01-12T07:08:45.119Z,5.00
2023-01-12T07:11:15.326Z,4.30
2023-01-12T07:13:43.112Z,4.60
2023-01-12T07:16:11.138Z,4.60
2023-01-12T07:18:39.044Z,4.00
2023-01-12T07:21:08.831Z,3.70
2023-01-12T07:23:37.937Z,3.90
2023-01-12T07:26:05.728Z,5.30
2023-01-12T07:28:34.461Z,5.20
2023-01-12T07:31:04.418Z,4.40
2023-01-12T07:33:32.691Z,4.10
2023-01-12T07:36:01.927Z,3.80
2023-01-12T07:38:30.972Z,3.50
2023-01-12T07:41:02.565Z,3.90
2023-01-12T07:43:30.666Z,3.40
2023-01-12T07:45:59.815Z,4.00
2023-01-12T07:48:27.956Z,3.90
2023-01-12T07:50:58.872Z,4.20
2023-01-12T07:53:27.027Z,3.70
2023-01-12T07:55:55.146Z,3.40
2023-01-12T07:58:22.903Z,4.30
2023-01-12T08:00:51.130Z,3.50
2023-01-12T08:03:19.980Z,3.30
2023-01-12T08:05:47.882Z,4.00
2023-01-12T08:08:16.060Z,3.60
2023-01-12T08:10:45.544Z,4.50
2023-01-12T08:13:13.843Z,4.60
2023-01-12T08:15:50.287Z,4.60
2023-01-12T08:18:25.067Z,4.90
2023-01-12T08:20:54.643Z,4.30
2023-01-12T08:23:32.837Z,3.40
2023-01-12T08:26:04.378Z,4.10
2023-01-12T08:28:35.842Z,3.40
2023-01-12T08:31:05.903Z,3.80
2023-01-12T08:33:34.025Z,3.50
2023-01-12T08:36:04.353Z,4.30
2023-01-12T08:38:32.728Z,5.60
2023-01-12T08:41:19.543Z,3.30
2023-01-12T08:44:03.270Z,3.70
2023-01-12T08:46:32.493Z,3.00
2023-01-12T08:49:01.294Z,3.30
2023-01-12T08:51:29.253Z,3.40
2023-01-12T08:53:57.091Z,3.10
2023-01-12T08:56:25.244Z,3.60
2023-01-12T08:58:53.420Z,3.60
2023-01-12T09:01:22.147Z,3.80
2023-01-12T09:03:50.493Z,4.10
2023-01-12T09:06:30.336Z,3.10
2023-01-12T09:09:05.212Z,3.20
2023-01-12T09:11:33.216Z,3.30
2023-01-12T09:14:01.972Z,3.40
2023-01-12T09:16:31.223Z,3.30
2023-01-12T09:18:59.752Z,3.00
2023-01-12T09:21:29.290Z,2.80
2023-01-12T09:23:57.257Z,2.90
2023-01-12T09:26:34.286Z,2.90
2023-01-12T09:29:04.384Z,2.30
2023-01-12T09:31:33.104Z,2.70
2023-01-12T09:34:01.469Z,2.70
2023-01-12T09:36:31.713Z,2.30
2023-01-12T09:38:59.676Z,2.50
2023-01-12T09:42:06.711Z,2.70
2023-01-12T09:44:58.635Z,2.80
2023-01-12T09:47:36.842Z,2.80
2023-01-12T09:50:12.203Z,2.60
2023-01-12T09:52:47.759Z,3.80
2023-01-12T09:55:21.083Z,3.30
2023-01-12T09:57:56.010Z,2.40
2023-01-12T10:00:25.021Z,2.40
2023-01-12T10:03:08.528Z,3.00
2023-01-12T10:05:42.677Z,2.90
2023-01-12T10:08:28.211Z,3.40
2023-01-12T10:11:21.182Z,3.10
2023-01-12T10:13:54.861Z,3.30
2023-01-12T10:17:07.586Z,3.00
2023-01-12T10:19:51.034Z,2.80
2023-01-12T10:22:39.032Z,2.70
2023-01-12T10:25:16.463Z,2.70
2023-01-12T10:27:46.756Z,3.10
2023-01-12T10:30:25.382Z,3.40
2023-01-12T10:35:23.281Z,3.10
2023-01-12T10:37:52.585Z,2.60
2023-01-12T10:40:29.720Z,2.80
2023-01-12T10:43:31.915Z,2.90
2023-01-12T10:46:12.355Z,3.30
2023-01-12T10:48:46.069Z,2.50
2023-01-12T10:51:23.099Z,2.70
2023-01-12T10:54:10.503Z,3.10
2023-01-12T10:56:43.248Z,2.80
2023-01-12T10:59:14.351Z,2.70
2023-01-12T11:02:06.128Z,2.70
2023-01-12T11:04:39.029Z,2.90
2023-01-12T11:09:43.692Z,3.00
2023-01-12T11:12:43.581Z,3.10
2023-01-12T11:15:12.257Z,2.60
2023-01-12T11:17:58.972Z,2.10
2023-01-12T11:20:31.156Z,2.80
2023-01-12T11:23:02.485Z,2.30
2023-01-12T11:25:34.894Z,3.00
2023-01-12T11:28:21.377Z,2.40
2023-01-12T11:30:54.721Z,3.40
2023-01-12T11:33:34.536Z,2.20
2023-01-12T11:36:23.832Z,2.20
2023-01-12T11:38:56.070Z,2.30
2023-01-12T11:41:34.462Z,2.80
2023-01-12T11:44:11.793Z,2.60
2023-01-12T11:46:42.722Z,2.70
2023-01-12T11:49:25.731Z,2.20
2023-01-12T11:51:58.537Z,2.10
2023-01-12T11:54:28.165Z,2.10
2023-01-12T11:57:08.243Z,2.80
2023-01-12T11:59:44.067Z,2.30
2023-01-12T12:02:38.195Z,2.10
2023-01-12T12:05:10.057Z,2.10
2023-01-12T12:07:48.599Z,2.30
2023-01-12T12:10:23.986Z,3.10
2023-01-12T12:13:07.601Z,2.50
2023-01-12T12:15:48.994Z,2.30
2023-01-12T12:18:49.851Z,3.20
2023-01-12T12:21:21.317Z,2.10
2023-01-12T12:24:27.490Z,2.00
2023-01-12T12:27:28.950Z,2.20
2023-01-12T12:30:26.307Z,3.30
2023-01-12T12:33:15.577Z,2.20
2023-01-12T12:36:08.899Z,2.50
2023-01-12T12:38:42.966Z,2.70
2023-01-12T12:41:41.413Z,2.40
2023-01-12T12:44:47.660Z,2.80
2023-01-12T12:47:34.290Z,2.70
2023-01-12T12:50:03.972Z,2.40
2023-01-12T12:52:38.126Z,2.50
2023-01-12T12:55:09.786Z,2.80
2023-01-12T12:58:00.605Z,2.40
2023-01-12T13:00:43.456Z,2.80
2023-01-12T13:03:11.589Z,2.40
2023-01-12T13:05:48.263Z,2.80
2023-01-12T13:08:27.467Z,2.50
2023-01-12T13:10:57.051Z,2.60
2023-01-12T13:13:31.419Z,3.20
2023-01-12T13:16:11.840Z,2.30
2023-01-12T13:18:48.566Z,3.10
2023-01-12T13:21:42.428Z,3.60
2023-01-12T13:24:10.334Z,2.80
2023-01-12T13:26:41.061Z,2.70
2023-01-12T13:29:27.397Z,3.50
2023-01-12T13:32:19.781Z,3.10
2023-01-12T13:34:47.951Z,3.00
2023-01-12T13:37:22.917Z,3.20
2023-01-12T13:40:20.914Z,3.00
2023-01-12T13:43:09.050Z,2.80
2023-01-12T13:45:37.754Z,2.90
2023-01-12T13:48:06.646Z,2.70
2023-01-12T13:50:35.719Z,3.20
2023-01-12T13:53:04.542Z,2.70
2023-01-12T13:55:36.208Z,3.00
2023-01-12T13:58:26.023Z,3.00
2023-01-12T14:01:03.570Z,3.30
2023-01-12T14:04:05.189Z,3.20
2023-01-12T14:06:42.162Z,3.10
2023-01-12T14:09:48.493Z,3.70
2023-01-12T14:12:26.096Z,2.80
2023-01-12T14:15:15.802Z,3.00
2023-01-12T14:17:49.901Z,3.30
2023-01-12T14:20:23.968Z,3.00
2023-01-12T14:23:19.696Z,2.60
2023-01-12T14:26:02.961Z,2.90
2023-01-12T14:28:31.578Z,3.90
2023-01-12T14:30:59.867Z,3.10
2023-01-12T14:33:31.871Z,3.10
2023-01-12T14:36:12.322Z,3.60
2023-01-12T14:38:41.619Z,3.60
2023-01-12T14:41:35.327Z,3.10
2023-01-12T14:44:23.410Z,3.50
2023-01-12T14:46:53.799Z,3.40
2023-01-12T14:49:31.076Z,3.00
2023-01-12T14:52:12.349Z,3.60
2023-01-12T14:54:40.515Z,3.10
2023-01-12T14:57:23.416Z,2.80
2023-01-12T14:59:52.057Z,3.40
2023-01-12T15:02:33.704Z,3.00
2023-01-12T15:05:10.926Z,3.30
2023-01-12T15:07:42.070Z,3.10
2023-01-12T15:10:09.775Z,2.90
2023-01-12T15:12:47.556Z,2.60
2023-01-12T15:15:21.908Z,3.50
2023-01-12T15:18:12.014Z,3.00
2023-01-12T15:21:02.131Z,2.80
2023-01-12T15:23:54.676Z,4.20
2023-01-12T15:26:22.871Z,2.80
2023-01-12T15:28:51.002Z,3.10
2023-01-12T15:31:29.512Z,3.30
2023-01-12T15:33:58.177Z,2.80
2023-01-12T15:36:26.239Z,2.80
2023-01-12T15:38:57.442Z,3.40
2023-01-12T15:41:47.873Z,2.90
2023-01-12T15:44:21.830Z,2.80
2023-01-12T15:46:49.785Z,3.50
2023-01-12T15:49:17.731Z,3.40
2023-01-12T15:51:50.351Z,2.70
2023-01-12T15:56:48.027Z,2.90
2023-01-12T15:59:17.013Z,2.50
2023-01-12T16:01:47.422Z,3.20
2023-01-12T16:07:12.117Z,2.60
2023-01-12T16:09:41.339Z,2.60
2023-01-12T16:12:09.197Z,3.00
2023-01-12T16:14:37.790Z,3.20
2023-01-12T16:17:05.723Z,2.50
2023-01-12T16:19:40.887Z,3.00
2023-01-12T16:22:21.484Z,2.70
2023-01-12T16:24:50.807Z,2.60
2023-01-12T16:27:21.007Z,2.10
2023-01-12T16:29:49.221Z,3.00
2023-01-12T16:32:17.760Z,3.00
2023-01-12T16:34:46.375Z,3.30
2023-01-12T16:37:15.838Z,2.30
2023-01-12T16:39:44.779Z,2.60
2023-01-12T16:42:13.778Z,2.30
2023-01-12T16:44:42.145Z,2.60
2023-01-12T16:47:14.847Z,2.50
2023-01-12T16:49:43.463Z,1.90
2023-01-12T16:52:14.997Z,2.30
2023-01-12T16:54:43.841Z,2.50
2023-01-12T16:57:13.718Z,2.90
2023-01-12T16:59:42.163Z,2.50
2023-01-12T17:02:15.637Z,2.40
2023-01-12T17:04:48.088Z,2.30
2023-01-12T17:07:16.453Z,2.70
2023-01-12T17:09:44.621Z,2.80
2023-01-12T17:12:12.760Z,2.50
2023-01-12T17:14:41.435Z,2.70
2023-01-12T17:17:11.162Z,2.10
2023-01-12T17:19:45.592Z,3.20
2023-01-12T17:22:14.369Z,2.50
2023-01-12T17:24:42.857Z,2.60
2023-01-12T17:27:11.486Z,2.50
2023-01-12T17:29:39.786Z,2.70
2023-01-12T17:32:08.398Z,2.70
2023-01-12T17:34:39.063Z,2.90
2023-01-12T17:37:10.077Z,2.40
2023-01-12T17:39:43.453Z,2.40
2023-01-12T17:45:02.930Z,2.50
2023-01-12T17:47:31.465Z,2.50
2023-01-12T17:49:59.392Z,2.80
2023-01-12T17:52:27.811Z,2.90
2023-01-12T17:54:55.787Z,2.60
2023-01-12T17:57:23.699Z,2.70
2023-01-12T17:59:52.528Z,2.40
2023-01-12T18:02:20.657Z,2.50
2023-01-12T18:04:48.815Z,2.50
2023-01-12T18:07:17.455Z,2.40
2023-01-12T18:09:45.468Z,2.90
2023-01-12T18:12:13.520Z,2.80
2023-01-12T18:14:41.992Z,3.30
2023-01-12T18:17:11.361Z,2.70
2023-01-12T18:19:41.474Z,2.00
2023-01-12T18:22:11.129Z,2.90
2023-01-12T18:24:39.244Z,2.80
2023-01-12T18:27:07.427Z,3.00
2023-01-12T18:29:35.699Z,2.60
2023-01-12T18:32:03.740Z,3.20
2023-01-12T18:34:31.670Z,2.30
2023-01-12T18:36:59.678Z,2.50
2023-01-12T18:39:27.548Z,2.60
2023-01-12T18:42:14.746Z,2.70
2023-01-12T18:44:42.888Z,2.30
2023-01-12T18:47:33.599Z,2.60
2023-01-12T18:50:21.602Z,2.70
2023-01-12T18:53:08.569Z,2.80
2023-01-12T18:55:37.640Z,3.60
2023-01-12T18:58:05.548Z,3.30
2023-01-12T19:00:33.586Z,3.30
2023-01-12T19:03:01.659Z,4.10
2023-01-12T19:05:44.417Z,2.80
2023-01-12T19:08:31.097Z,3.00
2023-01-12T19:11:10.715Z,2.70
2023-01-12T19:13:57.604Z,2.80
2023-01-12T19:16:44.165Z,2.70
2023-01-12T19:19:12.149Z,3.90
2023-01-12T19:21:58.930Z,4.20
2023-01-12T19:24:45.881Z,2.90
2023-01-12T19:27:32.511Z,3.20
2023-01-12T19:30:01.559Z,5.30
2023-01-12T19:32:29.415Z,3.60
2023-01-12T19:35:09.866Z,6.90
2023-01-12T19:37:40.307Z,3.20
2023-01-12T19:40:12.407Z,2.30
2023-01-12T19:42:59.936Z,2.80
2023-01-12T19:45:28.341Z,2.60
2023-01-12T19:47:57.894Z,2.50
2023-01-12T19:50:25.855Z,2.80
2023-01-12T19:52:53.981Z,3.10
2023-01-12T19:55:22.321Z,3.20
2023-01-12T19:57:50.374Z,2.90
2023-01-12T20:00:18.898Z,2.90
2023-01-12T20:02:47.034Z,3.70
2023-01-12T20:05:22.683Z,2.60
2023-01-12T20:07:52.764Z,2.70
2023-01-12T20:10:21.805Z,2.40
2023-01-12T20:12:52.716Z,2.80
2023-01-12T20:15:20.932Z,2.70
2023-01-12T20:17:49.365Z,2.40
2023-01-12T20:20:18.085Z,3.00
2023-01-12T20:22:49.086Z,3.10
2023-01-12T20:25:19.488Z,2.60
2023-01-12T20:27:49.395Z,2.60
2023-01-12T20:30:32.031Z,3.30
2023-01-12T20:33:06.840Z,5.20
2023-01-12T20:35:35.406Z,3.20
2023-01-12T20:38:07.108Z,3.40
2023-01-12T20:40:38.520Z,3.30
2023-01-12T20:43:07.038Z,2.60
2023-01-12T20:45:35.174Z,4.90
2023-01-12T20:48:03.825Z,3.00
2023-01-12T20:50:31.960Z,2.80
2023-01-12T20:52:59.867Z,3.10
2023-01-12T20:55:28.450Z,3.10
2023-01-12T20:57:56.657Z,3.00
2023-01-12T21:00:24.850Z,3.30
2023-01-12T21:02:53.164Z,3.20
2023-01-12T21:05:21.443Z,2.90
2023-01-12T21:07:57.047Z,3.30
2023-01-12T21:10:31.801Z,3.00
2023-01-12T21:13:00.143Z,3.30
2023-01-12T21:15:28.103Z,3.40
2023-01-12T21:17:56.137Z,3.20
2023-01-12T21:20:24.222Z,3.20
2023-01-12T21:22:52.051Z,3.60
2023-01-12T21:25:20.521Z,3.40
2023-01-12T21:27:49.883Z,2.60
2023-01-12T21:30:17.938Z,2.70
2023-01-12T21:32:46.823Z,2.70
2023-01-12T21:35:15.356Z,3.10
2023-01-12T21:37:43.363Z,3.40
2023-01-12T21:40:11.902Z,3.30
2023-01-12T21:42:58.756Z,3.30
2023-01-12T21:45:26.852Z,3.10
2023-01-12T21:47:55.537Z,2.90
2023-01-12T21:50:23.489Z,2.70
2023-01-12T21:52:52.105Z,2.80
2023-01-12T21:55:20.218Z,3.30
2023-01-12T21:57:48.291Z,4.20
2023-01-12T22:00:16.938Z,3.50
2023-01-12T22:02:44.941Z,3.20
2023-01-12T22:05:13.966Z,2.70
2023-01-12T22:07:42.110Z,2.80
2023-01-12T22:10:19.864Z,2.50
2023-01-12T22:12:50.641Z,2.60
2023-01-12T22:15:19.005Z,2.50
2023-01-12T22:17:47.488Z,2.30
2023-01-12T22:20:16.919Z,2.10
2023-01-12T22:22:45.016Z,1.80
2023-01-12T22:25:14.612Z,2.00
2023-01-12T22:27:43.310Z,2.10
2023-01-12T22:30:17.459Z,2.20
2023-01-12T22:32:45.903Z,2.10
2023-01-12T22:35:14.088Z,2.30
2023-01-12T22:37:41.873Z,2.00
2023-01-12T22:40:11.476Z,2.20
2023-01-12T22:42:58.022Z,3.30
2023-01-12T22:45:26.426Z,2.80
2023-01-12T22:47:55.789Z,2.10
2023-01-12T22:50:24.888Z,2.40
2023-01-12T22:52:54.836Z,2.50
2023-01-12T22:55:24.573Z,2.40
2023-01-12T22:57:52.318Z,2.20
2023-01-12T23:00:21.356Z,2.20
2023-01-12T23:03:02.602Z,1.90
2023-01-12T23:05:35.301Z,1.90
2023-01-12T23:08:05.592Z,4.50
2023-01-12T23:10:34.249Z,3.80
2023-01-12T23:13:11.712Z,2.70
2023-01-12T23:15:41.591Z,2.10
2023-01-12T23:18:09.949Z,3.40
2023-01-12T23:20:38.355Z,2.80
2023-01-12T23:23:07.794Z,2.50
2023-01-12T23:25:36.329Z,3.80
2023-01-12T23:28:05.986Z,2.40
2023-01-12T23:30:34.427Z,5.40
2023-01-12T23:33:04.252Z,3.90
2023-01-12T23:35:38.028Z,3.00
2023-01-12T23:38:07.977Z,5.80
2023-01-12T23:40:38.809Z,3.20
2023-01-12T23:43:06.731Z,3.00
2023-01-12T23:45:34.750Z,3.90
2023-01-12T23:48:02.742Z,6.20
2023-01-12T23:50:30.567Z,4.20
2023-01-12T23:52:58.740Z,3.40
2023-01-12T23:55:27.862Z,3.80
2023-01-12T23:57:56.037Z,2.80
